메인 페이지
METAR-TAF:

METAR-TAF

공항 :

하이파, 이스라엘

위도: 32-48N, 경도: 035-02E, 고도: 8m

현재 날씨관측

예보는 40분 전, 11:50시(UTC)에 발표되었습니다.
15kt
온도 26°C
습도 61%
기압 1013 hPa
시정 10km 이상
1500m 미만 상공 구름 및 적란운 없음

METAR: LLHA 051150Z 35015KT CAVOK 26/18 Q1013

시각: 15:30 (12:30 UTC)

예보

예보는 1 시간 25분 전, 11:05시(UTC)에 발표되었습니다.
예보 대상 시간: 05일 12시부터 06일 12시까지 (UTC)
15kt
시정 10km 이상
1500m 미만 상공 구름 및 적란운 없음
일시적
05일 12시부터 05일 16시까지 (UTC)
18kt, 순간 최대 풍속 28kt
전환 중
05일 19시부터 05일 21시까지 (UTC)
8kt
확률 30%
06일 00시부터 06일 06시까지 (UTC)
시정: 7000m
고도 1200ft 상공 구름 보통
전환 중
06일 07시부터 06일 09시까지 (UTC)
15kt

TAF: LLHA 051105Z 0512/0612 35015KT CAVOK TEMPO 0512/0516 35018G28KT BECMG 0519/0521 35008KT PROB30 0600/0606 7000 SCT012 BECMG 0607/0609 35015KT TX25/0512Z TN20/0603Z

4,000개 이상의 공항 관측 자료 및 예보 (METAR 및 TAF 보고).

지도상에서 검색 가능한 기상관측소가 노란 점과 빨간 점으로 표시되어 있습니다.

기상관측소 명을 보려면 표시 위로 마우스를 이동하세요.

날씨 관측과 예보를 보려면 클릭하세요.

지도 변경 : 확대하려면 엑스 표시가 있는 녹색 버튼, 축소하려면 빼기 표시가 있는 녹색 버튼, 다음 페이지의 지도를 보려면 녹색 화살표를 클릭하세요.


METAR-TAF: